Time;durP1;ratioP1;P1;durP2;ratioP2;P2;SDS_P1;SDS_P2;PMS_P1;PMS_P2;Temp;Humidity;BMP_temperature;BMP_pressure;BME280_temperature;BME280_humidity;BME280_pressure;Samples;Min_cycle;Max_cycle;Signal;HPM_P1;HPM_P2
2021/04/25 00:00:09;;;;;;;4.43;3.23;;;;;;;;;;5115459;28;20948;-60
2021/04/25 00:02:35;;;;;;;3.70;3.00;;;;;;;;;;5115074;27;20599;-61
2021/04/25 00:05:00;;;;;;;5.23;3.50;;;;;;;;;;5115468;28;20465;-61
2021/04/25 00:07:25;;;;;;;3.90;2.70;;;;;;;;;;5114523;28;20222;-60
2021/04/25 00:09:50;;;;;;;4.57;2.60;;;;;;;;;;5115110;28;20305;-61
2021/04/25 00:12:16;;;;;;;3.10;2.60;;;;;;;;;;5115286;28;20742;-61
2021/04/25 00:14:41;;;;;;;2.90;2.60;;;;;;;;;;5115060;28;20218;-61
2021/04/25 00:17:06;;;;;;;4.10;3.30;;;;;;;;;;5114271;28;20247;-61
2021/04/25 00:19:31;;;;;;;2.67;2.47;;;;;;;;;;5115231;28;20549;-60
2021/04/25 00:21:57;;;;;;;3.00;2.60;;;;;;;;;;5114948;27;20548;-61
2021/04/25 00:24:22;;;;;;;4.37;2.80;;;;;;;;;;5115324;27;20206;-60
2021/04/25 00:26:47;;;;;;;4.30;3.30;;;;;;;;;;5114622;28;20545;-61
2021/04/25 00:29:13;;;;;;;4.50;2.77;;;;;;;;;;5115079;28;20302;-61
2021/04/25 00:31:39;;;;;;;4.57;2.90;;;;;;;;;;5114548;27;20770;-61
2021/04/25 00:34:04;;;;;;;3.00;2.20;;;;;;;;;;5115142;28;20592;-61
2021/04/25 00:36:29;;;;;;;4.77;2.80;;;;;;;;;;5114953;28;20456;-61
2021/04/25 00:38:55;;;;;;;6.23;5.20;;;;;;;;;;5114534;28;20217;-61
2021/04/25 00:41:20;;;;;;;10.53;6.60;;;;;;;;;;5114982;28;20214;-61
2021/04/25 00:43:46;;;;;;;5.33;4.80;;;;;;;;;;5114267;28;20320;-61
2021/04/25 00:46:11;;;;;;;5.40;4.07;;;;;;;;;;5115012;28;20270;-60
2021/04/25 00:48:36;;;;;;;4.27;2.90;;;;;;;;;;5114637;28;20219;-60
2021/04/25 00:51:02;;;;;;;4.97;2.80;;;;;;;;;;5114363;27;20297;-61
2021/04/25 00:53:27;;;;;;;3.73;2.90;;;;;;;;;;5105051;27;20670;-61
2021/04/25 00:55:53;;;;;;;4.50;2.30;;;;;;;;;;5113137;28;20221;-61
2021/04/25 00:58:19;;;;;;;5.47;2.83;;;;;;;;;;5114718;27;20218;-61
2021/04/25 01:00:44;;;;;;;3.60;2.90;;;;;;;;;;5112308;28;20203;-60
2021/04/25 01:03:09;;;;;;;3.30;2.93;;;;;;;;;;5114716;28;20215;-60
2021/04/25 01:05:35;;;;;;;4.47;3.13;;;;;;;;;;5114373;28;20210;-61
2021/04/25 01:08:00;;;;;;;8.00;2.77;;;;;;;;;;5113952;28;20601;-60
2021/04/25 01:10:27;;;;;;;5.10;2.70;;;;;;;;;;5114356;28;20611;-61
2021/04/25 01:12:53;;;;;;;2.43;2.23;;;;;;;;;;5114055;28;20212;-61
2021/04/25 01:15:18;;;;;;;3.77;2.70;;;;;;;;;;5114440;28;20509;-61
2021/04/25 01:17:47;;;;;;;3.93;2.73;;;;;;;;;;5113988;28;20290;-60
2021/04/25 01:20:15;;;;;;;2.50;2.23;;;;;;;;;;5114532;28;20215;-61
2021/04/25 01:22:40;;;;;;;3.37;2.53;;;;;;;;;;5114010;28;20486;-60
2021/04/25 01:25:07;;;;;;;3.50;2.50;;;;;;;;;;5114450;28;20457;-60
2021/04/25 01:27:32;;;;;;;3.83;2.80;;;;;;;;;;5114331;28;20211;-61
2021/04/25 01:29:58;;;;;;;3.10;2.80;;;;;;;;;;5112730;28;20506;-60
2021/04/25 01:32:24;;;;;;;3.93;2.30;;;;;;;;;;5114270;28;20223;-61
2021/04/25 01:34:49;;;;;;;3.97;1.87;;;;;;;;;;5113998;28;20460;-60
2021/04/25 01:37:14;;;;;;;4.10;2.93;;;;;;;;;;5114308;28;20215;-61
2021/04/25 01:39:40;;;;;;;4.90;3.13;;;;;;;;;;5114158;28;20207;-61
2021/04/25 01:42:05;;;;;;;3.90;2.70;;;;;;;;;;5113808;28;20233;-61
2021/04/25 01:44:30;;;;;;;4.20;2.77;;;;;;;;;;5114273;28;20298;-60
2021/04/25 01:46:55;;;;;;;3.70;2.40;;;;;;;;;;5113948;28;20291;-60
2021/04/25 01:49:21;;;;;;;4.27;2.30;;;;;;;;;;5108552;27;20207;-62
2021/04/25 01:51:46;;;;;;;2.73;2.13;;;;;;;;;;5093414;28;20306;-59
2021/04/25 01:54:11;;;;;;;2.40;2.20;;;;;;;;;;5111159;28;20215;-62
2021/04/25 01:56:37;;;;;;;2.53;2.07;;;;;;;;;;5113138;28;20226;-62
2021/04/25 01:59:03;;;;;;;2.77;2.17;;;;;;;;;;5113527;28;20226;-60
2021/04/25 02:01:29;;;;;;;3.13;2.00;;;;;;;;;;5114017;28;20215;-61
2021/04/25 02:03:54;;;;;;;4.00;3.00;;;;;;;;;;5113903;28;20474;-61
2021/04/25 02:06:20;;;;;;;3.37;2.40;;;;;;;;;;5113993;28;20424;-61
2021/04/25 02:08:45;;;;;;;4.90;2.43;;;;;;;;;;5113400;28;20218;-61
2021/04/25 02:11:11;;;;;;;3.27;2.60;;;;;;;;;;5113808;28;20542;-61
2021/04/25 02:13:36;;;;;;;3.07;2.20;;;;;;;;;;5114010;28;20276;-61
2021/04/25 02:16:02;;;;;;;2.60;2.27;;;;;;;;;;5117189;28;20218;-60
2021/04/25 02:18:27;;;;;;;3.27;2.57;;;;;;;;;;5117848;27;20233;-60
2021/04/25 02:20:52;;;;;;;6.40;2.70;;;;;;;;;;5117163;28;20627;-61
2021/04/25 02:23:18;;;;;;;3.03;2.03;;;;;;;;;;5117735;27;20224;-61
2021/04/25 02:25:43;;;;;;;3.10;1.90;;;;;;;;;;5117544;28;20337;-61
2021/04/25 02:28:08;;;;;;;4.60;2.00;;;;;;;;;;5116921;28;21201;-61
2021/04/25 02:30:35;;;;;;;2.97;2.40;;;;;;;;;;5117451;28;20216;-60
2021/04/25 02:33:00;;;;;;;3.10;2.17;;;;;;;;;;5116977;28;20290;-61
2021/04/25 02:35:28;;;;;;;2.83;1.97;;;;;;;;;;5117741;28;20448;-60
2021/04/25 02:37:54;;;;;;;4.50;2.23;;;;;;;;;;5117033;27;20709;-60
2021/04/25 02:40:22;;;;;;;2.77;2.00;;;;;;;;;;5117225;28;20448;-61
2021/04/25 02:42:49;;;;;;;2.83;2.40;;;;;;;;;;5116785;27;20507;-61
2021/04/25 02:45:16;;;;;;;2.97;2.10;;;;;;;;;;5117210;28;20494;-60
2021/04/25 02:47:47;;;;;;;4.17;1.87;;;;;;;;;;5117140;28;20544;-60
2021/04/25 02:50:13;;;;;;;3.73;2.20;;;;;;;;;;5104216;28;20442;-60
2021/04/25 02:52:38;;;;;;;3.90;2.17;;;;;;;;;;5102184;28;20883;-61
2021/04/25 02:55:04;;;;;;;7.63;2.50;;;;;;;;;;5116418;27;20452;-60
2021/04/25 02:57:30;;;;;;;2.97;1.93;;;;;;;;;;5098479;28;20215;-61
2021/04/25 02:59:55;;;;;;;2.77;1.87;;;;;;;;;;5115171;28;20512;-61
2021/04/25 03:02:20;;;;;;;2.60;1.80;;;;;;;;;;5116998;28;20291;-62
2021/04/25 03:04:45;;;;;;;3.00;2.10;;;;;;;;;;5116912;28;20705;-61
2021/04/25 03:07:11;;;;;;;2.13;1.87;;;;;;;;;;5116313;28;20302;-60
2021/04/25 03:09:36;;;;;;;3.20;2.10;;;;;;;;;;5116491;28;20226;-60
2021/04/25 03:12:01;;;;;;;3.30;2.57;;;;;;;;;;5116108;27;20312;-60
2021/04/25 03:14:26;;;;;;;4.23;2.30;;;;;;;;;;5116831;28;20215;-60
2021/04/25 03:16:52;;;;;;;3.20;2.70;;;;;;;;;;5116409;27;20214;-60
2021/04/25 03:19:17;;;;;;;4.40;1.97;;;;;;;;;;5116419;28;20636;-61
2021/04/25 03:21:42;;;;;;;4.20;2.10;;;;;;;;;;5116411;27;20355;-62
2021/04/25 03:24:08;;;;;;;4.20;2.57;;;;;;;;;;5116052;28;20214;-61
2021/04/25 03:26:33;;;;;;;3.83;2.23;;;;;;;;;;5115199;28;20293;-61
2021/04/25 03:28:58;;;;;;;3.70;2.10;;;;;;;;;;5115669;27;20209;-61
2021/04/25 03:31:24;;;;;;;3.67;2.70;;;;;;;;;;5116104;28;20635;-61
2021/04/25 03:33:49;;;;;;;5.80;3.23;;;;;;;;;;5116104;27;20218;-61
2021/04/25 03:36:14;;;;;;;3.83;3.10;;;;;;;;;;5115966;27;20243;-62
2021/04/25 03:38:40;;;;;;;5.57;4.60;;;;;;;;;;5115992;28;20294;-61
2021/04/25 03:41:05;;;;;;;6.03;5.33;;;;;;;;;;5115823;28;20639;-61
2021/04/25 03:43:30;;;;;;;8.00;5.67;;;;;;;;;;5115719;28;20307;-61
2021/04/25 03:45:56;;;;;;;9.43;6.07;;;;;;;;;;5115556;27;20222;-61
2021/04/25 03:48:22;;;;;;;5.50;4.90;;;;;;;;;;5115799;28;20265;-61
2021/04/25 03:50:47;;;;;;;6.87;5.10;;;;;;;;;;5098320;28;20223;-61
2021/04/25 03:53:12;;;;;;;5.00;4.50;;;;;;;;;;5105143;27;20447;-61
2021/04/25 03:55:37;;;;;;;4.80;4.20;;;;;;;;;;5115912;28;20214;-60
2021/04/25 03:58:04;;;;;;;5.13;4.50;;;;;;;;;;5115299;28;20246;-61
2021/04/25 04:00:29;;;;;;;6.80;4.53;;;;;;;;;;5115860;27;20599;-61
2021/04/25 04:02:54;;;;;;;5.37;4.70;;;;;;;;;;5115390;28;20510;-61
2021/04/25 04:05:20;;;;;;;5.00;4.53;;;;;;;;;;5115853;28;20214;-61
2021/04/25 04:07:45;;;;;;;5.57;4.47;;;;;;;;;;5115372;28;20275;-61
2021/04/25 04:10:11;;;;;;;5.20;4.70;;;;;;;;;;5114980;28;20236;-61
2021/04/25 04:12:36;;;;;;;5.63;4.40;;;;;;;;;;5115572;27;20553;-61
2021/04/25 04:15:03;;;;;;;5.63;4.57;;;;;;;;;;5114993;28;20297;-63
2021/04/25 04:17:28;;;;;;;4.90;4.40;;;;;;;;;;5115030;28;20226;-63
2021/04/25 04:19:54;;;;;;;8.97;4.97;;;;;;;;;;5115434;28;20441;-60
2021/04/25 04:22:19;;;;;;;5.80;4.27;;;;;;;;;;5114141;28;20692;-61
2021/04/25 04:24:44;;;;;;;8.20;3.90;;;;;;;;;;5115441;28;20215;-60
2021/04/25 04:27:10;;;;;;;7.13;3.77;;;;;;;;;;5114909;28;20306;-61
2021/04/25 04:29:35;;;;;;;7.33;4.30;;;;;;;;;;5115076;28;20263;-62
2021/04/25 04:32:00;;;;;;;5.63;3.93;;;;;;;;;;5114418;28;20729;-62
2021/04/25 04:34:26;;;;;;;6.37;3.87;;;;;;;;;;5115044;28;20210;-62
2021/04/25 04:36:51;;;;;;;5.10;3.97;;;;;;;;;;5114774;28;20235;-60
2021/04/25 04:39:16;;;;;;;5.37;3.57;;;;;;;;;;5114417;27;20616;-61
2021/04/25 04:41:41;;;;;;;4.80;3.70;;;;;;;;;;5115175;28;20221;-62
2021/04/25 04:44:07;;;;;;;7.60;4.17;;;;;;;;;;5114198;28;20320;-62
2021/04/25 04:46:32;;;;;;;4.00;3.60;;;;;;;;;;5114848;27;20207;-61
2021/04/25 04:48:57;;;;;;;6.07;3.77;;;;;;;;;;5112428;28;20203;-61
2021/04/25 04:51:23;;;;;;;4.50;3.30;;;;;;;;;;5093195;28;20229;-61
2021/04/25 04:53:48;;;;;;;6.13;3.97;;;;;;;;;;5109403;27;20219;-62
2021/04/25 04:56:13;;;;;;;5.23;3.27;;;;;;;;;;5114233;28;20222;-61
2021/04/25 04:58:38;;;;;;;6.40;4.03;;;;;;;;;;5114516;28;20241;-62
2021/04/25 05:01:04;;;;;;;7.37;4.07;;;;;;;;;;5114319;28;20294;-60
2021/04/25 05:03:29;;;;;;;4.23;3.57;;;;;;;;;;5115119;28;20649;-61
2021/04/25 05:05:55;;;;;;;4.60;2.80;;;;;;;;;;5114832;28;20222;-61
2021/04/25 05:08:20;;;;;;;7.17;4.07;;;;;;;;;;5114362;28;20663;-61
2021/04/25 05:10:45;;;;;;;3.50;3.20;;;;;;;;;;5114678;28;20223;-61
2021/04/25 05:13:11;;;;;;;5.37;3.80;;;;;;;;;;5114564;28;20244;-62
2021/04/25 05:15:37;;;;;;;5.23;3.70;;;;;;;;;;5101919;28;20303;-63
2021/04/25 05:18:03;;;;;;;4.60;3.47;;;;;;;;;;5093816;28;20235;-62
2021/04/25 05:20:28;;;;;;;5.70;4.10;;;;;;;;;;5105273;27;20509;-63
2021/04/25 05:22:58;;;;;;;6.23;3.93;;;;;;;;;;5096497;28;20241;-62
2021/04/25 05:25:23;;;;;;;5.40;3.57;;;;;;;;;;5113985;27;20235;-62
2021/04/25 05:27:48;;;;;;;7.40;4.17;;;;;;;;;;5107773;27;20495;-62
2021/04/25 05:30:14;;;;;;;4.30;3.77;;;;;;;;;;5093496;28;20218;-63
2021/04/25 05:32:39;;;;;;;3.87;3.27;;;;;;;;;;5093982;28;20731;-62
2021/04/25 05:35:06;;;;;;;3.90;3.43;;;;;;;;;;5093813;28;20369;-63
2021/04/25 05:37:31;;;;;;;4.17;3.00;;;;;;;;;;5110160;27;20215;-62
2021/04/25 05:39:56;;;;;;;5.37;2.90;;;;;;;;;;5114254;27;20918;-62
2021/04/25 05:42:21;;;;;;;4.20;3.27;;;;;;;;;;5114023;27;20210;-62
2021/04/25 05:44:47;;;;;;;3.80;3.40;;;;;;;;;;5114061;27;20232;-63
2021/04/25 05:47:12;;;;;;;4.57;3.03;;;;;;;;;;5113742;27;20231;-62
2021/04/25 05:49:37;;;;;;;3.53;2.80;;;;;;;;;;5112693;27;20233;-63
2021/04/25 05:52:03;;;;;;;4.43;2.60;;;;;;;;;;5117401;27;20568;-63
2021/04/25 05:54:28;;;;;;;5.93;3.10;;;;;;;;;;5112080;28;20543;-62
2021/04/25 05:56:53;;;;;;;3.57;2.80;;;;;;;;;;5117030;28;20295;-62
2021/04/25 05:59:19;;;;;;;4.17;3.57;;;;;;;;;;5117812;28;20686;-62
2021/04/25 06:01:44;;;;;;;5.90;3.93;;;;;;;;;;5118011;27;20652;-62
2021/04/25 06:04:09;;;;;;;4.03;3.13;;;;;;;;;;5117845;28;20294;-63
2021/04/25 06:06:35;;;;;;;3.20;2.90;;;;;;;;;;5118020;28;20302;-62
2021/04/25 06:09:00;;;;;;;4.50;2.67;;;;;;;;;;5117873;28;20210;-62
2021/04/25 06:11:26;;;;;;;4.93;3.87;;;;;;;;;;5117325;28;20612;-62
2021/04/25 06:13:52;;;;;;;4.67;3.33;;;;;;;;;;5117180;28;20659;-62
2021/04/25 06:16:17;;;;;;;3.70;2.50;;;;;;;;;;5117481;28;20217;-62
2021/04/25 06:18:42;;;;;;;5.10;3.30;;;;;;;;;;5117589;28;20535;-62
2021/04/25 06:21:08;;;;;;;3.57;2.80;;;;;;;;;;5117292;27;20209;-62
2021/04/25 06:23:33;;;;;;;6.00;3.43;;;;;;;;;;5117950;27;20214;-62
2021/04/25 06:25:58;;;;;;;4.60;2.80;;;;;;;;;;5117508;28;20309;-63
2021/04/25 06:28:27;;;;;;;3.60;3.10;;;;;;;;;;5116941;27;20219;-62
2021/04/25 06:30:53;;;;;;;3.30;2.27;;;;;;;;;;5117528;27;20252;-62
2021/04/25 06:33:18;;;;;;;4.57;3.00;;;;;;;;;;5117037;27;20574;-62
2021/04/25 06:35:43;;;;;;;4.37;2.57;;;;;;;;;;5117527;28;20505;-62
2021/04/25 06:38:09;;;;;;;3.10;2.60;;;;;;;;;;5116862;28;20222;-60
2021/04/25 06:40:36;;;;;;;3.50;2.30;;;;;;;;;;5117287;28;20610;-62
2021/04/25 06:43:04;;;;;;;2.80;2.43;;;;;;;;;;5117185;27;20293;-62
2021/04/25 06:45:29;;;;;;;4.67;3.03;;;;;;;;;;5117133;27;20417;-63
2021/04/25 06:47:55;;;;;;;2.80;2.27;;;;;;;;;;5117285;27;20475;-63
2021/04/25 06:50:20;;;;;;;3.43;2.40;;;;;;;;;;5102651;28;20215;-61
2021/04/25 06:52:46;;;;;;;3.80;2.70;;;;;;;;;;5103248;27;20226;-62
2021/04/25 06:55:17;;;;;;;5.80;3.20;;;;;;;;;;5116346;27;20573;-62
2021/04/25 06:57:43;;;;;;;3.10;2.00;;;;;;;;;;5116815;27;20773;-62
2021/04/25 07:00:09;;;;;;;4.10;3.40;;;;;;;;;;5116000;28;21004;-62
2021/04/25 07:02:34;;;;;;;3.23;2.60;;;;;;;;;;5116874;27;20435;-64
2021/04/25 07:05:00;;;;;;;2.83;2.47;;;;;;;;;;5116694;27;20644;-63
2021/04/25 07:07:25;;;;;;;4.63;3.40;;;;;;;;;;5116075;28;20237;-63
2021/04/25 07:09:51;;;;;;;4.03;2.67;;;;;;;;;;5116415;28;20206;-63
2021/04/25 07:12:16;;;;;;;4.93;2.37;;;;;;;;;;5116095;27;20732;-64
2021/04/25 07:14:41;;;;;;;3.20;2.60;;;;;;;;;;5116548;28;20215;-63
2021/04/25 07:17:07;;;;;;;3.33;2.63;;;;;;;;;;5115785;28;20281;-63
2021/04/25 07:19:32;;;;;;;3.03;2.40;;;;;;;;;;5116337;28;20268;-63
2021/04/25 07:21:58;;;;;;;4.20;2.30;;;;;;;;;;5116302;27;20248;-63
2021/04/25 07:24:23;;;;;;;3.50;2.57;;;;;;;;;;5115825;27;20208;-63
2021/04/25 07:26:49;;;;;;;5.00;2.50;;;;;;;;;;5116144;28;20504;-63
2021/04/25 07:29:14;;;;;;;4.60;3.00;;;;;;;;;;5115718;28;20244;-63
2021/04/25 07:31:41;;;;;;;3.70;2.70;;;;;;;;;;5116187;28;20307;-63
2021/04/25 07:34:06;;;;;;;3.63;2.23;;;;;;;;;;5116155;27;20430;-63
2021/04/25 07:36:31;;;;;;;3.40;2.67;;;;;;;;;;5115674;28;20945;-63
2021/04/25 07:38:56;;;;;;;4.33;3.13;;;;;;;;;;5115983;28;20219;-63
2021/04/25 07:41:22;;;;;;;2.50;2.30;;;;;;;;;;5115673;28;20617;-63
2021/04/25 07:43:47;;;;;;;3.43;2.17;;;;;;;;;;5115633;28;20231;-63
2021/04/25 07:46:12;;;;;;;5.37;2.37;;;;;;;;;;5115639;28;20238;-63
2021/04/25 07:48:38;;;;;;;3.73;2.30;;;;;;;;;;5115464;27;20577;-63
2021/04/25 07:51:03;;;;;;;3.30;2.53;;;;;;;;;;5095956;28;20229;-63
2021/04/25 07:53:28;;;;;;;3.60;2.10;;;;;;;;;;5107365;27;21157;-62
2021/04/25 07:55:54;;;;;;;3.37;2.07;;;;;;;;;;5115586;28;20298;-63
2021/04/25 07:58:19;;;;;;;3.00;1.90;;;;;;;;;;5114984;27;20237;-63
2021/04/25 08:00:45;;;;;;;3.83;2.20;;;;;;;;;;5115503;28;20215;-64
2021/04/25 08:03:10;;;;;;;4.23;2.77;;;;;;;;;;5115299;27;20211;-63
2021/04/25 08:05:35;;;;;;;3.13;2.10;;;;;;;;;;5115604;28;20234;-62
2021/04/25 08:08:01;;;;;;;4.27;2.23;;;;;;;;;;5115457;28;20234;-64
2021/04/25 08:10:27;;;;;;;2.90;2.30;;;;;;;;;;5114930;28;20552;-64
2021/04/25 08:12:52;;;;;;;3.60;2.70;;;;;;;;;;5114769;28;20449;-63
2021/04/25 08:15:17;;;;;;;2.40;2.20;;;;;;;;;;5115067;28;20535;-63
2021/04/25 08:17:44;;;;;;;2.90;2.20;;;;;;;;;;5115255;28;20218;-64
2021/04/25 08:20:10;;;;;;;4.70;2.60;;;;;;;;;;5115296;28;20237;-64
2021/04/25 08:22:35;;;;;;;4.10;2.17;;;;;;;;;;5114828;28;20829;-63
2021/04/25 08:25:00;;;;;;;2.37;2.17;;;;;;;;;;5115272;28;20863;-63
2021/04/25 08:27:26;;;;;;;3.00;2.10;;;;;;;;;;5114686;27;20305;-62
2021/04/25 08:29:51;;;;;;;4.13;2.10;;;;;;;;;;5114462;28;20240;-63
2021/04/25 08:32:16;;;;;;;2.70;2.20;;;;;;;;;;5114591;28;20227;-64
2021/04/25 08:34:41;;;;;;;2.63;2.17;;;;;;;;;;5114971;28;20210;-62
2021/04/25 08:37:07;;;;;;;2.37;2.10;;;;;;;;;;5114858;28;20630;-63
2021/04/25 08:39:32;;;;;;;2.30;1.70;;;;;;;;;;5114426;28;20218;-63
2021/04/25 08:41:58;;;;;;;2.53;2.33;;;;;;;;;;5114812;28;20211;-63
2021/04/25 08:44:23;;;;;;;2.90;2.33;;;;;;;;;;5114444;27;20233;-63
2021/04/25 08:46:50;;;;;;;3.30;2.33;;;;;;;;;;5115059;28;20311;-63
2021/04/25 08:49:18;;;;;;;2.80;2.57;;;;;;;;;;5109939;28;20227;-62
2021/04/25 08:51:44;;;;;;;4.03;2.60;;;;;;;;;;5094342;28;20472;-63
2021/04/25 08:54:12;;;;;;;4.73;2.80;;;;;;;;;;5112732;27;20469;-62
2021/04/25 08:56:37;;;;;;;2.70;2.10;;;;;;;;;;5114243;27;20920;-62
2021/04/25 08:59:03;;;;;;;3.43;2.00;;;;;;;;;;5114475;27;20555;-63
2021/04/25 09:01:28;;;;;;;4.00;2.53;;;;;;;;;;5113434;28;20211;-62
2021/04/25 09:03:53;;;;;;;2.50;2.00;;;;;;;;;;5114881;28;20219;-63
2021/04/25 09:06:18;;;;;;;2.97;2.00;;;;;;;;;;5114438;27;20751;-63
2021/04/25 09:08:46;;;;;;;4.67;2.50;;;;;;;;;;5113759;28;20250;-63
2021/04/25 09:11:35;;;;;;;2.13;1.87;;;;;;;;;;5114619;28;20219;-63
2021/04/25 09:14:20;;;;;;;3.80;2.07;;;;;;;;;;5114292;28;20949;-63
2021/04/25 09:17:06;;;;;;;4.00;3.07;;;;;;;;;;5114855;28;20445;-63
2021/04/25 09:19:59;;;;;;;3.60;2.97;;;;;;;;;;5114280;28;20514;-63
2021/04/25 09:22:43;;;;;;;3.93;1.90;;;;;;;;;;5113586;28;20540;-63
2021/04/25 09:25:10;;;;;;;2.60;2.13;;;;;;;;;;5116386;28;20886;-62
2021/04/25 09:27:35;;;;;;;4.20;2.20;;;;;;;;;;5118307;28;20504;-63
2021/04/25 09:30:01;;;;;;;5.57;2.87;;;;;;;;;;5117920;28;20477;-63
2021/04/25 09:32:31;;;;;;;2.60;2.00;;;;;;;;;;5118350;28;20235;-63
2021/04/25 09:35:16;;;;;;;2.73;2.00;;;;;;;;;;5118999;27;20289;-63
2021/04/25 09:37:44;;;;;;;2.37;1.80;;;;;;;;;;5118347;28;20419;-64
2021/04/25 09:40:17;;;;;;;5.20;2.43;;;;;;;;;;5117403;28;20452;-63
2021/04/25 09:43:02;;;;;;;3.17;2.10;;;;;;;;;;5117968;27;20440;-63
2021/04/25 09:45:30;;;;;;;5.77;3.40;;;;;;;;;;5117996;27;20464;-62
2021/04/25 09:47:56;;;;;;;3.20;2.63;;;;;;;;;;5118349;28;20461;-63
2021/04/25 09:50:23;;;;;;;3.60;2.50;;;;;;;;;;5104016;28;20432;-63
2021/04/25 09:52:50;;;;;;;3.43;3.13;;;;;;;;;;5103770;28;20460;-63
2021/04/25 09:55:20;;;;;;;4.57;2.90;;;;;;;;;;5118335;27;20942;-62
2021/04/25 09:57:47;;;;;;;4.20;2.40;;;;;;;;;;5118181;27;20502;-62
2021/04/25 10:00:13;;;;;;;3.20;2.83;;;;;;;;;;5118372;28;20491;-63
2021/04/25 10:02:59;;;;;;;5.10;2.90;;;;;;;;;;5117851;28;20513;-62
2021/04/25 10:05:27;;;;;;;4.20;3.17;;;;;;;;;;5118059;27;20440;-63
2021/04/25 10:07:52;;;;;;;5.50;3.30;;;;;;;;;;5117890;27;20419;-63
2021/04/25 10:10:19;;;;;;;3.23;2.23;;;;;;;;;;5117997;28;20460;-62
2021/04/25 10:12:48;;;;;;;3.60;2.50;;;;;;;;;;5117531;28;20693;-62
2021/04/25 10:15:14;;;;;;;5.23;2.43;;;;;;;;;;5117933;28;20456;-62
2021/04/25 10:17:41;;;;;;;4.17;2.70;;;;;;;;;;5117681;27;20476;-62
2021/04/25 10:20:07;;;;;;;3.13;2.33;;;;;;;;;;5117973;28;20590;-62
2021/04/25 10:22:33;;;;;;;3.93;2.23;;;;;;;;;;5117696;28;20470;-63
2021/04/25 10:24:59;;;;;;;2.87;2.53;;;;;;;;;;5117012;28;20953;-62
2021/04/25 10:27:25;;;;;;;3.47;2.37;;;;;;;;;;5117201;27;20660;-61
2021/04/25 10:30:04;;;;;;;2.57;2.13;;;;;;;;;;5116608;28;20940;-62
2021/04/25 10:32:29;;;;;;;3.63;2.27;;;;;;;;;;5117146;28;20794;-62
2021/04/25 10:35:14;;;;;;;2.23;2.00;;;;;;;;;;5099009;28;20445;-62
2021/04/25 10:37:40;;;;;;;2.70;1.73;;;;;;;;;;5117162;27;20269;-63
2021/04/25 10:40:28;;;;;;;2.40;1.60;;;;;;;;;;5117121;27;20464;-63
2021/04/25 10:42:56;;;;;;;6.20;2.70;;;;;;;;;;5116804;27;20469;-62
2021/04/25 10:45:25;;;;;;;3.80;2.63;;;;;;;;;;5117138;27;20425;-63
2021/04/25 10:48:21;;;;;;;2.23;1.50;;;;;;;;;;5116685;27;20428;-62
2021/04/25 10:50:49;;;;;;;2.50;1.70;;;;;;;;;;5116421;27;20797;-61
2021/04/25 10:53:26;;;;;;;3.63;1.60;;;;;;;;;;5107603;27;20939;-62
2021/04/25 10:56:11;;;;;;;1.80;1.60;;;;;;;;;;5116640;27;20552;-62
2021/04/25 10:58:37;;;;;;;2.20;1.50;;;;;;;;;;5116308;27;20463;-62
2021/04/25 11:01:02;;;;;;;2.33;2.10;;;;;;;;;;5096331;28;20462;-62
2021/04/25 11:03:27;;;;;;;2.13;1.80;;;;;;;;;;5096383;28;20238;-62
2021/04/25 11:05:53;;;;;;;2.80;1.63;;;;;;;;;;5095818;28;20692;-62
2021/04/25 11:08:30;;;;;;;2.70;1.83;;;;;;;;;;5104497;27;20213;-62
2021/04/25 11:11:01;;;;;;;2.13;1.90;;;;;;;;;;5116337;27;20330;-62
2021/04/25 11:13:32;;;;;;;2.53;2.30;;;;;;;;;;5115573;28;20917;-62
2021/04/25 11:16:02;;;;;;;2.40;1.87;;;;;;;;;;5116275;27;20484;-62
2021/04/25 11:18:42;;;;;;;2.70;1.50;;;;;;;;;;5116247;27;20893;-61
2021/04/25 11:21:30;;;;;;;4.83;2.33;;;;;;;;;;5116052;27;20483;-63
2021/04/25 11:24:01;;;;;;;2.83;1.90;;;;;;;;;;5115995;27;20444;-63
2021/04/25 11:26:38;;;;;;;2.73;2.20;;;;;;;;;;5116204;27;20463;-62
2021/04/25 11:29:16;;;;;;;3.37;1.90;;;;;;;;;;5115733;27;20823;-63
2021/04/25 11:31:54;;;;;;;2.13;1.63;;;;;;;;;;5116075;28;20459;-63
2021/04/25 11:34:31;;;;;;;2.00;1.70;;;;;;;;;;5109253;28;20455;-60
2021/04/25 11:37:05;;;;;;;2.10;1.70;;;;;;;;;;5115710;27;20448;-60
2021/04/25 11:39:47;;;;;;;3.47;2.10;;;;;;;;;;5114777;28;20449;-61
2021/04/25 11:42:23;;;;;;;2.30;1.77;;;;;;;;;;5115588;27;20483;-62
2021/04/25 11:44:49;;;;;;;1.97;1.57;;;;;;;;;;5115714;27;20468;-61
2021/04/25 11:47:16;;;;;;;2.63;1.57;;;;;;;;;;5114529;27;20471;-61
2021/04/25 11:49:43;;;;;;;2.17;1.73;;;;;;;;;;5127161;27;20205;-60
2021/04/25 11:52:28;;;;;;;2.87;1.70;;;;;;;;;;5134729;27;20987;-61
2021/04/25 11:55:06;;;;;;;1.77;1.53;;;;;;;;;;5131440;27;20509;-61
2021/04/25 11:57:36;;;;;;;3.63;1.70;;;;;;;;;;5136093;27;20781;-61
2021/04/25 12:00:07;;;;;;;2.07;1.13;;;;;;;;;;5135698;27;20440;-60
2021/04/25 12:02:35;;;;;;;2.33;1.20;;;;;;;;;;5136121;27;20482;-61
2021/04/25 12:05:06;;;;;;;1.70;1.60;;;;;;;;;;5135529;27;20440;-61
2021/04/25 12:07:40;;;;;;;2.33;1.40;;;;;;;;;;5135891;27;20479;-60
2021/04/25 12:10:18;;;;;;;2.57;1.50;;;;;;;;;;5135628;27;20451;-61
2021/04/25 12:13:16;;;;;;;1.03;0.90;;;;;;;;;;5135503;27;20865;-61
2021/04/25 12:15:51;;;;;;;1.50;1.27;;;;;;;;;;5123696;27;20452;-62
2021/04/25 12:18:37;;;;;;;1.73;1.50;;;;;;;;;;5135735;27;20458;-62
2021/04/25 12:21:05;;;;;;;2.20;1.60;;;;;;;;;;5134025;27;20827;-61
2021/04/25 12:23:35;;;;;;;2.37;1.60;;;;;;;;;;5135608;27;20857;-59
2021/04/25 12:26:11;;;;;;;1.53;1.30;;;;;;;;;;5135001;27;20448;-61
2021/04/25 12:28:42;;;;;;;1.40;1.20;;;;;;;;;;5135587;27;20552;-61
2021/04/25 12:31:11;;;;;;;1.30;1.10;;;;;;;;;;5134005;27;20542;-61
2021/04/25 12:33:39;;;;;;;1.73;1.60;;;;;;;;;;5135806;27;20479;-60
2021/04/25 12:36:05;;;;;;;1.47;1.37;;;;;;;;;;5134843;27;20474;-61
2021/04/25 12:38:30;;;;;;;2.10;1.50;;;;;;;;;;5135294;27;20448;-62
2021/04/25 12:41:08;;;;;;;3.87;2.00;;;;;;;;;;5134807;27;20505;-59
2021/04/25 12:43:37;;;;;;;1.87;1.37;;;;;;;;;;5135106;27;20222;-61
2021/04/25 12:46:22;;;;;;;4.77;1.67;;;;;;;;;;5134909;27;20823;-61
2021/04/25 12:48:50;;;;;;;1.53;1.17;;;;;;;;;;5134496;27;20472;-62
2021/04/25 12:51:18;;;;;;;1.80;1.23;;;;;;;;;;5134895;27;20535;-60
2021/04/25 12:53:46;;;;;;;2.93;1.20;;;;;;;;;;5134946;27;20471;-61
2021/04/25 12:56:19;;;;;;;2.70;1.10;;;;;;;;;;5133805;27;20505;-60
2021/04/25 12:59:17;;;;;;;1.00;0.90;;;;;;;;;;5134732;27;20944;-60
2021/04/25 13:02:00;;;;;;;1.40;1.20;;;;;;;;;;5134756;27;20445;-61
2021/04/25 13:04:31;;;;;;;2.33;1.17;;;;;;;;;;5135026;27;20474;-61
2021/04/25 13:07:29;;;;;;;3.00;1.30;;;;;;;;;;5134847;27;20444;-60
2021/04/25 13:09:55;;;;;;;2.30;1.20;;;;;;;;;;5134401;27;20944;-60
2021/04/25 13:12:22;;;;;;;2.33;1.40;;;;;;;;;;5135010;27;20540;-60
2021/04/25 13:15:00;;;;;;;1.23;1.10;;;;;;;;;;5134603;27;20218;-61
2021/04/25 13:17:27;;;;;;;2.53;1.47;;;;;;;;;;5134924;27;20506;-59
2021/04/25 13:19:53;;;;;;;1.73;1.00;;;;;;;;;;5134302;27;22640;-60
2021/04/25 13:22:19;;;;;;;1.70;1.10;;;;;;;;;;5134740;27;20945;-61
2021/04/25 13:24:44;;;;;;;2.50;1.50;;;;;;;;;;5134544;27;20496;-61
2021/04/25 13:27:12;;;;;;;1.40;1.20;;;;;;;;;;5134623;27;20286;-61
2021/04/25 13:29:38;;;;;;;1.90;1.10;;;;;;;;;;5134505;27;20206;-61
2021/04/25 13:32:03;;;;;;;1.47;1.30;;;;;;;;;;5134748;27;20744;-62
2021/04/25 13:34:28;;;;;;;1.93;1.30;;;;;;;;;;5134725;27;20206;-62
2021/04/25 13:36:54;;;;;;;1.97;1.30;;;;;;;;;;5134148;27;20210;-62
2021/04/25 13:39:19;;;;;;;2.10;1.60;;;;;;;;;;5134755;27;20289;-61
2021/04/25 13:41:44;;;;;;;1.50;1.10;;;;;;;;;;5134236;27;20253;-60
2021/04/25 13:44:10;;;;;;;1.67;1.03;;;;;;;;;;5134526;27;20620;-61
2021/04/25 13:46:36;;;;;;;1.73;1.13;;;;;;;;;;5134163;27;20210;-61
2021/04/25 13:49:03;;;;;;;2.47;1.60;;;;;;;;;;5132017;27;20214;-61
2021/04/25 13:51:29;;;;;;;1.13;1.03;;;;;;;;;;5113963;27;20222;-61
2021/04/25 13:53:54;;;;;;;1.70;1.17;;;;;;;;;;5129733;27;20447;-61
2021/04/25 13:56:19;;;;;;;1.63;1.23;;;;;;;;;;5134513;27;20298;-60
2021/04/25 13:58:45;;;;;;;1.50;1.20;;;;;;;;;;5133716;27;20603;-60
2021/04/25 14:01:11;;;;;;;1.77;1.43;;;;;;;;;;5134446;27;20270;-59
2021/04/25 14:03:37;;;;;;;1.90;1.10;;;;;;;;;;5134071;27;20214;-62
2021/04/25 14:06:02;;;;;;;2.07;1.20;;;;;;;;;;5134287;27;20478;-61
2021/04/25 14:08:27;;;;;;;3.40;1.20;;;;;;;;;;5134197;27;20294;-61
2021/04/25 14:10:52;;;;;;;1.47;1.10;;;;;;;;;;5134996;27;20731;-61
2021/04/25 14:13:18;;;;;;;3.53;1.70;;;;;;;;;;5138299;27;20214;-61
2021/04/25 14:15:43;;;;;;;1.53;1.23;;;;;;;;;;5137773;27;20674;-61
2021/04/25 14:18:08;;;;;;;2.07;1.50;;;;;;;;;;5137889;27;20214;-59
2021/04/25 14:20:34;;;;;;;2.00;1.60;;;;;;;;;;5138070;27;20210;-60
2021/04/25 14:23:00;;;;;;;1.60;1.20;;;;;;;;;;5137366;27;20277;-61
2021/04/25 14:25:27;;;;;;;2.77;1.50;;;;;;;;;;5137842;27;20211;-60
2021/04/25 14:27:53;;;;;;;1.83;1.20;;;;;;;;;;5137377;27;20956;-61
2021/04/25 14:30:24;;;;;;;1.40;1.03;;;;;;;;;;5123397;27;20588;-62
2021/04/25 14:32:50;;;;;;;1.50;1.40;;;;;;;;;;5116757;27;20800;-60
2021/04/25 14:35:17;;;;;;;1.53;1.20;;;;;;;;;;5117224;28;20457;-62
2021/04/25 14:37:42;;;;;;;2.60;1.67;;;;;;;;;;5116643;27;20468;-62
2021/04/25 14:40:11;;;;;;;2.13;1.33;;;;;;;;;;5116915;28;20929;-60
2021/04/25 14:42:36;;;;;;;1.30;1.10;;;;;;;;;;5116986;28;20547;-60
2021/04/25 14:45:03;;;;;;;1.80;1.40;;;;;;;;;;5116609;28;20464;-61